sensor_id;sensor_type;location;lat;lon;timestamp;pressure;altitude;pressure_sealevel;temperature;humidity
13486;BME280;6815;59.336;17.998;2023-06-26T00:01:02;51983.34;;;-145.37;61.66
13486;BME280;6815;59.336;17.998;2023-06-26T00:03:27;51971.38;;;-145.37;61.32
13486;BME280;6815;59.336;17.998;2023-06-26T00:05:54;52005.31;;;-145.37;61.79
13486;BME280;6815;59.336;17.998;2023-06-26T00:08:19;51967.38;;;-145.37;62.16
13486;BME280;6815;59.336;17.998;2023-06-26T00:10:45;51987.34;;;-145.37;63.47
13486;BME280;6815;59.336;17.998;2023-06-26T00:13:11;51925.47;;;-145.37;63.46
13486;BME280;6815;59.336;17.998;2023-06-26T00:15:37;51955.41;;;-145.37;62.82
13486;BME280;6815;59.336;17.998;2023-06-26T00:18:03;51961.41;;;-145.37;62.31
13486;BME280;6815;59.336;17.998;2023-06-26T00:20:28;52013.31;;;-145.37;62.43
13486;BME280;6815;59.336;17.998;2023-06-26T00:22:54;51993.34;;;-145.37;62.62
13486;BME280;6815;59.336;17.998;2023-06-26T00:25:21;52067.19;;;-145.37;62.02
13486;BME280;6815;59.336;17.998;2023-06-26T00:27:47;51957.41;;;-145.37;62.02
13486;BME280;6815;59.336;17.998;2023-06-26T00:30:12;51927.47;;;-145.37;62.00
13486;BME280;6815;59.336;17.998;2023-06-26T00:32:38;51961.41;;;-145.37;61.86
13486;BME280;6815;59.336;17.998;2023-06-26T00:35:03;51949.44;;;-145.37;61.38
13486;BME280;6815;59.336;17.998;2023-06-26T00:37:29;51979.38;;;-145.37;62.24
13486;BME280;6815;59.336;17.998;2023-06-26T00:39:54;51981.38;;;-145.37;62.47
13486;BME280;6815;59.336;17.998;2023-06-26T00:42:19;51961.41;;;-145.37;61.83
13486;BME280;6815;59.336;17.998;2023-06-26T00:44:45;52001.31;;;-145.37;61.67
13486;BME280;6815;59.336;17.998;2023-06-26T00:47:14;51987.34;;;-145.37;61.37
13486;BME280;6815;59.336;17.998;2023-06-26T00:49:40;51897.53;;;-145.37;61.20
13486;BME280;6815;59.336;17.998;2023-06-26T00:52:06;51971.38;;;-145.37;60.56
13486;BME280;6815;59.336;17.998;2023-06-26T00:54:32;51955.41;;;-145.37;60.42
13486;BME280;6815;59.336;17.998;2023-06-26T00:56:57;51935.47;;;-145.37;60.63
13486;BME280;6815;59.336;17.998;2023-06-26T00:59:23;51989.34;;;-145.37;60.64
13486;BME280;6815;59.336;17.998;2023-06-26T01:01:48;51985.34;;;-145.37;60.66
13486;BME280;6815;59.336;17.998;2023-06-26T01:04:14;51967.38;;;-145.37;60.47
13486;BME280;6815;59.336;17.998;2023-06-26T01:06:47;52053.22;;;-145.37;59.81
13486;BME280;6815;59.336;17.998;2023-06-26T01:09:18;51985.34;;;-145.37;59.67
13486;BME280;6815;59.336;17.998;2023-06-26T01:11:45;52025.28;;;-145.37;60.97
13486;BME280;6815;59.336;17.998;2023-06-26T01:14:10;51969.38;;;-145.37;62.25
13486;BME280;6815;59.336;17.998;2023-06-26T01:16:37;51985.34;;;-145.37;62.61
13486;BME280;6815;59.336;17.998;2023-06-26T01:19:08;51911.50;;;-145.37;61.84
13486;BME280;6815;59.336;17.998;2023-06-26T01:21:38;51989.34;;;-145.37;63.04
13486;BME280;6815;59.336;17.998;2023-06-26T01:24:12;51971.38;;;-145.37;62.73
13486;BME280;6815;59.336;17.998;2023-06-26T01:26:46;51987.34;;;-145.37;64.04
13486;BME280;6815;59.336;17.998;2023-06-26T01:29:15;51983.34;;;-145.37;64.45
13486;BME280;6815;59.336;17.998;2023-06-26T01:31:42;51987.34;;;-145.37;64.69
13486;BME280;6815;59.336;17.998;2023-06-26T01:34:09;51987.34;;;-145.37;64.53
13486;BME280;6815;59.336;17.998;2023-06-26T01:36:35;52005.31;;;-145.37;65.40
13486;BME280;6815;59.336;17.998;2023-06-26T01:39:02;51979.38;;;-145.37;65.29
13486;BME280;6815;59.336;17.998;2023-06-26T01:41:27;51963.41;;;-145.37;65.88
13486;BME280;6815;59.336;17.998;2023-06-26T01:46:46;51995.34;;;-145.37;64.63
13486;BME280;6815;59.336;17.998;2023-06-26T01:54:41;52167.00;;;-145.37;65.51
13486;BME280;6815;59.336;17.998;2023-06-26T01:57:08;52001.31;;;-145.37;66.24
13486;BME280;6815;59.336;17.998;2023-06-26T01:59:35;52009.31;;;-145.37;66.94
13486;BME280;6815;59.336;17.998;2023-06-26T02:02:01;51997.34;;;-145.37;67.10
13486;BME280;6815;59.336;17.998;2023-06-26T02:04:27;51977.38;;;-145.37;67.74
13486;BME280;6815;59.336;17.998;2023-06-26T02:06:52;51947.44;;;-145.37;67.17
13486;BME280;6815;59.336;17.998;2023-06-26T02:09:18;51973.38;;;-145.37;66.86
13486;BME280;6815;59.336;17.998;2023-06-26T02:11:44;52007.31;;;-145.37;67.12
13486;BME280;6815;59.336;17.998;2023-06-26T02:14:09;51993.34;;;-145.37;66.92
13486;BME280;6815;59.336;17.998;2023-06-26T02:16:36;51973.38;;;-145.37;68.05
13486;BME280;6815;59.336;17.998;2023-06-26T02:19:01;51985.34;;;-145.37;68.60
13486;BME280;6815;59.336;17.998;2023-06-26T02:21:26;51945.44;;;-145.37;68.44
13486;BME280;6815;59.336;17.998;2023-06-26T02:23:52;51943.44;;;-145.37;68.45
13486;BME280;6815;59.336;17.998;2023-06-26T02:26:17;51981.38;;;-145.37;68.99
13486;BME280;6815;59.336;17.998;2023-06-26T02:28:43;51977.38;;;-145.37;68.88
13486;BME280;6815;59.336;17.998;2023-06-26T02:31:08;51997.34;;;-145.37;69.97
13486;BME280;6815;59.336;17.998;2023-06-26T02:33:34;52001.31;;;-145.37;69.67
13486;BME280;6815;59.336;17.998;2023-06-26T02:35:59;51987.34;;;-145.37;68.36
13486;BME280;6815;59.336;17.998;2023-06-26T02:38:24;51995.34;;;-145.37;69.30
13486;BME280;6815;59.336;17.998;2023-06-26T02:40:50;51993.34;;;-145.37;68.58
13486;BME280;6815;59.336;17.998;2023-06-26T02:43:15;52001.31;;;-145.37;69.10
13486;BME280;6815;59.336;17.998;2023-06-26T02:45:41;51991.34;;;-145.37;68.95
13486;BME280;6815;59.336;17.998;2023-06-26T02:48:06;51969.38;;;-145.37;68.67
13486;BME280;6815;59.336;17.998;2023-06-26T02:50:32;52011.31;;;-145.37;69.38
13486;BME280;6815;59.336;17.998;2023-06-26T02:52:57;51973.38;;;-145.37;68.81
13486;BME280;6815;59.336;17.998;2023-06-26T02:55:23;52027.28;;;-145.37;67.28
13486;BME280;6815;59.336;17.998;2023-06-26T02:57:49;51985.34;;;-145.37;67.98
13486;BME280;6815;59.336;17.998;2023-06-26T03:00:15;51985.34;;;-145.37;69.21
13486;BME280;6815;59.336;17.998;2023-06-26T03:02:40;51985.34;;;-145.37;69.55
13486;BME280;6815;59.336;17.998;2023-06-26T03:05:05;51961.41;;;-145.37;69.28
13486;BME280;6815;59.336;17.998;2023-06-26T03:07:31;52003.31;;;-145.37;68.20
13486;BME280;6815;59.336;17.998;2023-06-26T03:09:56;51983.34;;;-145.37;68.55
13486;BME280;6815;59.336;17.998;2023-06-26T03:12:22;51973.38;;;-145.37;69.14
13486;BME280;6815;59.336;17.998;2023-06-26T03:14:47;52085.16;;;-145.37;69.21
13486;BME280;6815;59.336;17.998;2023-06-26T03:17:12;52003.31;;;-145.37;70.22
13486;BME280;6815;59.336;17.998;2023-06-26T03:19:38;51973.38;;;-145.37;69.37
13486;BME280;6815;59.336;17.998;2023-06-26T03:22:03;51953.41;;;-145.37;69.06
13486;BME280;6815;59.336;17.998;2023-06-26T03:24:29;51987.34;;;-145.37;69.81
13486;BME280;6815;59.336;17.998;2023-06-26T03:26:56;51985.34;;;-145.37;69.30
13486;BME280;6815;59.336;17.998;2023-06-26T03:29:21;52001.31;;;-145.37;69.64
13486;BME280;6815;59.336;17.998;2023-06-26T03:31:47;51979.38;;;-145.37;69.78
13486;BME280;6815;59.336;17.998;2023-06-26T03:34:12;52015.28;;;-145.37;71.24
13486;BME280;6815;59.336;17.998;2023-06-26T03:36:38;51971.38;;;-145.37;70.52
13486;BME280;6815;59.336;17.998;2023-06-26T03:39:03;51975.38;;;-145.37;70.06
13486;BME280;6815;59.336;17.998;2023-06-26T03:41:29;51981.38;;;-145.37;71.25
13486;BME280;6815;59.336;17.998;2023-06-26T03:43:54;52013.31;;;-145.37;71.05
13486;BME280;6815;59.336;17.998;2023-06-26T03:46:21;51957.41;;;-145.37;70.82
13486;BME280;6815;59.336;17.998;2023-06-26T03:48:47;51955.41;;;-145.37;69.95
13486;BME280;6815;59.336;17.998;2023-06-26T03:51:13;51953.41;;;-145.37;70.17
13486;BME280;6815;59.336;17.998;2023-06-26T03:53:39;51957.41;;;-145.37;69.40
13486;BME280;6815;59.336;17.998;2023-06-26T03:56:04;51939.44;;;-145.37;69.34
13486;BME280;6815;59.336;17.998;2023-06-26T03:58:29;51957.41;;;-145.37;68.55
13486;BME280;6815;59.336;17.998;2023-06-26T04:00:55;51973.38;;;-145.37;68.36
13486;BME280;6815;59.336;17.998;2023-06-26T04:03:21;51969.38;;;-145.37;66.77
13486;BME280;6815;59.336;17.998;2023-06-26T04:05:46;51991.34;;;-145.37;64.81
13486;BME280;6815;59.336;17.998;2023-06-26T04:08:11;51995.34;;;-145.37;64.45
13486;BME280;6815;59.336;17.998;2023-06-26T04:10:37;51983.34;;;-145.37;63.93
13486;BME280;6815;59.336;17.998;2023-06-26T04:13:02;51989.34;;;-145.37;62.60
13486;BME280;6815;59.336;17.998;2023-06-26T04:15:27;51967.38;;;-145.37;61.37
13486;BME280;6815;59.336;17.998;2023-06-26T04:17:53;51971.38;;;-145.37;62.19
13486;BME280;6815;59.336;17.998;2023-06-26T04:20:18;51985.34;;;-145.37;60.25
13486;BME280;6815;59.336;17.998;2023-06-26T04:22:44;51965.41;;;-145.37;60.36
13486;BME280;6815;59.336;17.998;2023-06-26T04:25:09;51955.41;;;-145.37;58.69
13486;BME280;6815;59.336;17.998;2023-06-26T04:27:37;51931.47;;;-145.37;56.28
13486;BME280;6815;59.336;17.998;2023-06-26T04:30:02;51905.50;;;-145.37;52.46
13486;BME280;6815;59.336;17.998;2023-06-26T04:32:28;51937.44;;;-145.37;49.60
13486;BME280;6815;59.336;17.998;2023-06-26T04:34:53;51917.50;;;-145.37;49.69
13486;BME280;6815;59.336;17.998;2023-06-26T04:37:19;51927.47;;;-145.37;48.58
13486;BME280;6815;59.336;17.998;2023-06-26T04:39:44;51967.38;;;-145.37;47.92
13486;BME280;6815;59.336;17.998;2023-06-26T04:42:10;51883.56;;;-145.37;47.57
13486;BME280;6815;59.336;17.998;2023-06-26T04:44:37;51947.44;;;-145.37;47.00
13486;BME280;6815;59.336;17.998;2023-06-26T04:47:03;51869.59;;;-145.37;46.08
13486;BME280;6815;59.336;17.998;2023-06-26T04:49:28;51913.50;;;-145.37;45.59
13486;BME280;6815;59.336;17.998;2023-06-26T04:51:55;51917.50;;;-145.37;45.12
13486;BME280;6815;59.336;17.998;2023-06-26T04:54:22;51925.47;;;-145.37;43.39
13486;BME280;6815;59.336;17.998;2023-06-26T04:56:48;51911.50;;;-145.37;41.49
13486;BME280;6815;59.336;17.998;2023-06-26T04:59:13;51877.56;;;-145.37;39.52
13486;BME280;6815;59.336;17.998;2023-06-26T05:01:40;51909.50;;;-145.37;40.56
13486;BME280;6815;59.336;17.998;2023-06-26T05:04:06;51905.50;;;-145.37;39.47
13486;BME280;6815;59.336;17.998;2023-06-26T05:06:31;51885.56;;;-145.37;38.79
13486;BME280;6815;59.336;17.998;2023-06-26T05:08:57;51895.53;;;-145.37;39.61
13486;BME280;6815;59.336;17.998;2023-06-26T05:11:24;51831.66;;;-145.37;39.31
13486;BME280;6815;59.336;17.998;2023-06-26T05:13:49;51873.56;;;-145.37;37.92
13486;BME280;6815;59.336;17.998;2023-06-26T05:16:15;51903.50;;;-145.37;37.70
13486;BME280;6815;59.336;17.998;2023-06-26T05:18:40;51865.59;;;-145.37;38.69
13486;BME280;6815;59.336;17.998;2023-06-26T05:21:06;51897.53;;;-145.37;37.57
13486;BME280;6815;59.336;17.998;2023-06-26T05:23:33;52071.19;;;-145.37;36.37
13486;BME280;6815;59.336;17.998;2023-06-26T05:25:59;51887.53;;;-145.37;35.46
13486;BME280;6815;59.336;17.998;2023-06-26T05:28:25;51879.56;;;-145.37;35.73
13486;BME280;6815;59.336;17.998;2023-06-26T05:30:53;51875.56;;;-145.37;35.92
13486;BME280;6815;59.336;17.998;2023-06-26T05:33:18;51949.44;;;-145.37;35.28
13486;BME280;6815;59.336;17.998;2023-06-26T05:35:45;51889.53;;;-145.37;34.94
13486;BME280;6815;59.336;17.998;2023-06-26T05:38:12;51891.53;;;-145.37;34.39
13486;BME280;6815;59.336;17.998;2023-06-26T05:40:39;51857.59;;;-145.37;34.18
13486;BME280;6815;59.336;17.998;2023-06-26T05:43:06;51851.63;;;-145.37;34.30
13486;BME280;6815;59.336;17.998;2023-06-26T05:45:31;51841.63;;;-145.37;34.05
13486;BME280;6815;59.336;17.998;2023-06-26T05:47:56;51855.63;;;-145.37;33.81
13486;BME280;6815;59.336;17.998;2023-06-26T05:50:22;51853.63;;;-145.37;33.50
13486;BME280;6815;59.336;17.998;2023-06-26T05:52:48;51855.63;;;-145.37;33.39
13486;BME280;6815;59.336;17.998;2023-06-26T05:55:14;51849.63;;;-145.37;32.71
13486;BME280;6815;59.336;17.998;2023-06-26T05:57:41;51839.66;;;-145.37;32.68
13486;BME280;6815;59.336;17.998;2023-06-26T06:00:07;51815.69;;;-145.37;32.50
13486;BME280;6815;59.336;17.998;2023-06-26T06:02:36;51865.59;;;-145.37;32.28
13486;BME280;6815;59.336;17.998;2023-06-26T06:05:02;51805.72;;;-145.37;31.53
13486;BME280;6815;59.336;17.998;2023-06-26T06:07:28;51825.66;;;-145.37;31.81
13486;BME280;6815;59.336;17.998;2023-06-26T06:09:53;51845.63;;;-145.37;31.75
13486;BME280;6815;59.336;17.998;2023-06-26T06:12:19;51857.59;;;-145.37;31.98
13486;BME280;6815;59.336;17.998;2023-06-26T06:14:44;51801.72;;;-145.37;32.14
13486;BME280;6815;59.336;17.998;2023-06-26T06:17:10;51857.59;;;-145.37;31.98
13486;BME280;6815;59.336;17.998;2023-06-26T06:19:35;51861.59;;;-145.37;31.24
13486;BME280;6815;59.336;17.998;2023-06-26T06:22:01;51845.63;;;-145.37;31.21
13486;BME280;6815;59.336;17.998;2023-06-26T06:24:26;51855.63;;;-145.37;31.10
13486;BME280;6815;59.336;17.998;2023-06-26T06:26:51;51841.63;;;-145.37;31.26
13486;BME280;6815;59.336;17.998;2023-06-26T06:29:17;52085.16;;;-145.37;31.23
13486;BME280;6815;59.336;17.998;2023-06-26T06:31:44;51831.66;;;-145.37;31.23
13486;BME280;6815;59.336;17.998;2023-06-26T06:34:09;51879.56;;;-145.37;31.58
13486;BME280;6815;59.336;17.998;2023-06-26T06:36:35;51865.59;;;-145.37;31.53
13486;BME280;6815;59.336;17.998;2023-06-26T06:39:00;51829.66;;;-145.37;31.21
13486;BME280;6815;59.336;17.998;2023-06-26T06:41:26;51915.50;;;-145.37;30.83
13486;BME280;6815;59.336;17.998;2023-06-26T06:43:51;51817.69;;;-145.37;31.29
13486;BME280;6815;59.336;17.998;2023-06-26T06:46:17;51817.69;;;-145.37;31.32
13486;BME280;6815;59.336;17.998;2023-06-26T06:48:42;51789.75;;;-145.37;30.85
13486;BME280;6815;59.336;17.998;2023-06-26T06:51:07;51845.63;;;-145.37;30.85
13486;BME280;6815;59.336;17.998;2023-06-26T06:53:33;51845.63;;;-145.37;30.76
13486;BME280;6815;59.336;17.998;2023-06-26T06:55:58;51805.72;;;-145.37;30.40
13486;BME280;6815;59.336;17.998;2023-06-26T06:58:24;51857.59;;;-145.37;31.23
13486;BME280;6815;59.336;17.998;2023-06-26T07:00:49;51839.66;;;-145.37;30.42
13486;BME280;6815;59.336;17.998;2023-06-26T07:03:16;51793.75;;;-145.37;30.34
13486;BME280;6815;59.336;17.998;2023-06-26T07:05:42;51817.69;;;-145.37;30.75
13486;BME280;6815;59.336;17.998;2023-06-26T07:08:07;51851.63;;;-145.37;30.85
13486;BME280;6815;59.336;17.998;2023-06-26T07:10:33;51859.59;;;-145.37;30.84
13486;BME280;6815;59.336;17.998;2023-06-26T07:12:59;51857.59;;;-145.37;30.92
13486;BME280;6815;59.336;17.998;2023-06-26T07:15:24;51867.59;;;-145.37;30.86
13486;BME280;6815;59.336;17.998;2023-06-26T07:17:50;51823.69;;;-145.37;30.79
13486;BME280;6815;59.336;17.998;2023-06-26T07:20:15;51845.63;;;-145.37;30.96
13486;BME280;6815;59.336;17.998;2023-06-26T07:25:50;51797.72;;;-145.37;30.67
13486;BME280;6815;59.336;17.998;2023-06-26T07:28:16;51855.63;;;-145.37;30.60
13486;BME280;6815;59.336;17.998;2023-06-26T07:30:41;51855.63;;;-145.37;30.36
13486;BME280;6815;59.336;17.998;2023-06-26T07:33:07;51801.72;;;-145.37;30.81
13486;BME280;6815;59.336;17.998;2023-06-26T07:35:33;51865.59;;;-145.37;30.57
13486;BME280;6815;59.336;17.998;2023-06-26T07:37:58;51865.59;;;-145.37;30.53
13486;BME280;6815;59.336;17.998;2023-06-26T07:40:25;51869.59;;;-145.37;30.23
13486;BME280;6815;59.336;17.998;2023-06-26T07:42:50;51821.69;;;-145.37;29.73
13486;BME280;6815;59.336;17.998;2023-06-26T07:45:16;51777.78;;;-145.37;29.87
13486;BME280;6815;59.336;17.998;2023-06-26T07:47:41;51841.63;;;-145.37;30.09
13486;BME280;6815;59.336;17.998;2023-06-26T07:50:07;51939.44;;;-145.37;30.58
13486;BME280;6815;59.336;17.998;2023-06-26T07:52:32;51897.53;;;-145.37;31.37
13486;BME280;6815;59.336;17.998;2023-06-26T07:54:58;51893.53;;;-145.37;30.73
13486;BME280;6815;59.336;17.998;2023-06-26T07:57:24;51847.63;;;-145.37;30.76
13486;BME280;6815;59.336;17.998;2023-06-26T07:59:50;52053.22;;;-145.37;30.46
13486;BME280;6815;59.336;17.998;2023-06-26T08:02:15;51815.69;;;-145.37;30.71
13486;BME280;6815;59.336;17.998;2023-06-26T08:04:41;51849.63;;;-145.37;30.79
13486;BME280;6815;59.336;17.998;2023-06-26T08:07:06;51887.53;;;-145.37;30.57
13486;BME280;6815;59.336;17.998;2023-06-26T08:09:32;51799.72;;;-145.37;30.66
13486;BME280;6815;59.336;17.998;2023-06-26T08:11:58;51909.50;;;-145.37;30.57
13486;BME280;6815;59.336;17.998;2023-06-26T08:14:24;51891.53;;;-145.37;31.58
13486;BME280;6815;59.336;17.998;2023-06-26T08:16:49;51897.53;;;-145.37;31.72
13486;BME280;6815;59.336;17.998;2023-06-26T08:19:16;51845.63;;;-145.37;32.11
13486;BME280;6815;59.336;17.998;2023-06-26T08:21:43;51899.53;;;-145.37;32.19
13486;BME280;6815;59.336;17.998;2023-06-26T08:24:08;51879.56;;;-145.37;32.24
13486;BME280;6815;59.336;17.998;2023-06-26T08:26:35;51803.72;;;-145.37;31.98
13486;BME280;6815;59.336;17.998;2023-06-26T08:29:01;51853.63;;;-145.37;31.65
13486;BME280;6815;59.336;17.998;2023-06-26T08:31:32;51873.56;;;-145.37;32.03
13486;BME280;6815;59.336;17.998;2023-06-26T08:33:59;51911.50;;;-145.37;31.68
13486;BME280;6815;59.336;17.998;2023-06-26T08:36:25;51885.56;;;-145.37;32.04
13486;BME280;6815;59.336;17.998;2023-06-26T08:38:50;51979.38;;;-145.37;31.66
13486;BME280;6815;59.336;17.998;2023-06-26T08:41:16;51879.56;;;-145.37;31.64
13486;BME280;6815;59.336;17.998;2023-06-26T08:43:41;51841.63;;;-145.37;32.12
13486;BME280;6815;59.336;17.998;2023-06-26T08:46:08;51863.59;;;-145.37;33.01
13486;BME280;6815;59.336;17.998;2023-06-26T08:48:35;51907.50;;;-145.37;33.82
13486;BME280;6815;59.336;17.998;2023-06-26T08:51:09;51933.47;;;-145.37;33.36
13486;BME280;6815;59.336;17.998;2023-06-26T08:54:00;51909.50;;;-145.37;33.29
13486;BME280;6815;59.336;17.998;2023-06-26T08:56:48;51881.56;;;-145.37;32.95
13486;BME280;6815;59.336;17.998;2023-06-26T08:59:14;51913.50;;;-145.37;32.95
13486;BME280;6815;59.336;17.998;2023-06-26T09:01:40;51907.50;;;-145.37;33.18
13486;BME280;6815;59.336;17.998;2023-06-26T09:04:06;51897.53;;;-145.37;33.80
13486;BME280;6815;59.336;17.998;2023-06-26T09:06:32;51901.53;;;-145.37;33.82
13486;BME280;6815;59.336;17.998;2023-06-26T09:08:58;51879.56;;;-145.37;33.31
13486;BME280;6815;59.336;17.998;2023-06-26T09:11:23;51869.59;;;-145.37;33.47
13486;BME280;6815;59.336;17.998;2023-06-26T09:13:49;51907.50;;;-145.37;33.27
13486;BME280;6815;59.336;17.998;2023-06-26T09:16:15;51885.56;;;-145.37;32.96
13486;BME280;6815;59.336;17.998;2023-06-26T09:18:41;51863.59;;;-145.37;33.33
13486;BME280;6815;59.336;17.998;2023-06-26T09:21:09;51921.47;;;-145.37;34.08
13486;BME280;6815;59.336;17.998;2023-06-26T09:23:35;51881.56;;;-145.37;34.20
13486;BME280;6815;59.336;17.998;2023-06-26T09:26:05;51883.56;;;-145.37;33.85
13486;BME280;6815;59.336;17.998;2023-06-26T09:28:35;51877.56;;;-145.37;34.13
13486;BME280;6815;59.336;17.998;2023-06-26T09:31:06;51879.56;;;-145.37;34.47
13486;BME280;6815;59.336;17.998;2023-06-26T09:33:35;51913.50;;;-145.37;35.23
13486;BME280;6815;59.336;17.998;2023-06-26T09:36:05;51913.50;;;-145.37;35.38
13486;BME280;6815;59.336;17.998;2023-06-26T09:38:31;51899.53;;;-145.37;35.41
13486;BME280;6815;59.336;17.998;2023-06-26T09:40:57;51943.44;;;-145.37;35.30
13486;BME280;6815;59.336;17.998;2023-06-26T09:43:22;51897.53;;;-145.37;35.57
13486;BME280;6815;59.336;17.998;2023-06-26T09:45:48;51873.56;;;-145.37;35.91
13486;BME280;6815;59.336;17.998;2023-06-26T09:48:14;51887.53;;;-145.37;36.49
13486;BME280;6815;59.336;17.998;2023-06-26T09:50:41;51921.47;;;-145.37;36.20
13486;BME280;6815;59.336;17.998;2023-06-26T09:53:13;51929.47;;;-145.37;36.07
13486;BME280;6815;59.336;17.998;2023-06-26T09:55:40;51879.56;;;-145.37;35.36
13486;BME280;6815;59.336;17.998;2023-06-26T09:58:10;51895.53;;;-145.37;35.45
13486;BME280;6815;59.336;17.998;2023-06-26T10:00:40;51913.50;;;-145.37;35.56
13486;BME280;6815;59.336;17.998;2023-06-26T10:03:06;51891.53;;;-145.37;36.11
13486;BME280;6815;59.336;17.998;2023-06-26T10:05:32;51865.59;;;-145.37;35.88
13486;BME280;6815;59.336;17.998;2023-06-26T10:07:58;51851.63;;;-145.37;36.01
13486;BME280;6815;59.336;17.998;2023-06-26T10:10:25;51855.63;;;-145.37;35.64
13486;BME280;6815;59.336;17.998;2023-06-26T10:12:54;51877.56;;;-145.37;36.23
13486;BME280;6815;59.336;17.998;2023-06-26T10:15:23;51907.50;;;-145.37;36.35
13486;BME280;6815;59.336;17.998;2023-06-26T10:17:49;51899.53;;;-145.37;36.86
13486;BME280;6815;59.336;17.998;2023-06-26T10:20:15;51885.56;;;-145.37;36.68
13486;BME280;6815;59.336;17.998;2023-06-26T10:22:44;51897.53;;;-145.37;36.68
13486;BME280;6815;59.336;17.998;2023-06-26T10:25:12;51909.50;;;-145.37;36.50
13486;BME280;6815;59.336;17.998;2023-06-26T10:27:43;51889.53;;;-145.37;36.44
13486;BME280;6815;59.336;17.998;2023-06-26T10:30:16;52137.06;;;-145.37;36.86
13486;BME280;6815;59.336;17.998;2023-06-26T10:32:42;51921.47;;;-145.37;36.76
13486;BME280;6815;59.336;17.998;2023-06-26T10:35:10;51851.63;;;-145.37;36.58
13486;BME280;6815;59.336;17.998;2023-06-26T10:37:49;51959.41;;;-145.37;37.38
13486;BME280;6815;59.336;17.998;2023-06-26T10:40:21;51903.50;;;-145.37;37.26
13486;BME280;6815;59.336;17.998;2023-06-26T10:42:47;51907.50;;;-145.37;37.21
13486;BME280;6815;59.336;17.998;2023-06-26T10:45:22;52131.06;;;-145.37;36.85
13486;BME280;6815;59.336;17.998;2023-06-26T10:47:48;51885.56;;;-145.37;37.32
13486;BME280;6815;59.336;17.998;2023-06-26T10:50:25;51921.47;;;-145.37;37.26
13486;BME280;6815;59.336;17.998;2023-06-26T10:53:10;51887.53;;;-145.37;36.65
13486;BME280;6815;59.336;17.998;2023-06-26T10:55:39;51923.47;;;-145.37;36.36
13486;BME280;6815;59.336;17.998;2023-06-26T11:03:39;51917.50;;;-145.37;36.81
13486;BME280;6815;59.336;17.998;2023-06-26T11:06:12;51909.50;;;-145.37;36.68
13486;BME280;6815;59.336;17.998;2023-06-26T11:08:51;51893.53;;;-145.37;36.75
13486;BME280;6815;59.336;17.998;2023-06-26T11:11:21;51883.56;;;-145.37;36.49
13486;BME280;6815;59.336;17.998;2023-06-26T11:13:47;51879.56;;;-145.37;36.50
13486;BME280;6815;59.336;17.998;2023-06-26T11:16:14;51913.50;;;-145.37;36.17
13486;BME280;6815;59.336;17.998;2023-06-26T11:18:41;51899.53;;;-145.37;36.25
13486;BME280;6815;59.336;17.998;2023-06-26T11:21:10;51927.47;;;-145.37;36.31
13486;BME280;6815;59.336;17.998;2023-06-26T11:23:39;51887.53;;;-145.37;36.50
13486;BME280;6815;59.336;17.998;2023-06-26T11:26:17;51881.56;;;-145.37;36.73
13486;BME280;6815;59.336;17.998;2023-06-26T11:28:50;51905.50;;;-145.37;36.85
13486;BME280;6815;59.336;17.998;2023-06-26T11:31:27;51893.53;;;-145.37;36.54
13486;BME280;6815;59.336;17.998;2023-06-26T11:33:53;51919.50;;;-145.37;36.38
13486;BME280;6815;59.336;17.998;2023-06-26T11:36:23;51887.53;;;-145.37;36.49
13486;BME280;6815;59.336;17.998;2023-06-26T11:38:55;51889.53;;;-145.37;36.39
13486;BME280;6815;59.336;17.998;2023-06-26T11:41:22;51891.53;;;-145.37;35.90
13486;BME280;6815;59.336;17.998;2023-06-26T11:43:48;51895.53;;;-145.37;36.35
13486;BME280;6815;59.336;17.998;2023-06-26T11:46:16;51903.50;;;-145.37;36.75
13486;BME280;6815;59.336;17.998;2023-06-26T11:48:43;51929.47;;;-145.37;36.77
13486;BME280;6815;59.336;17.998;2023-06-26T11:51:08;51983.34;;;-145.37;36.52
13486;BME280;6815;59.336;17.998;2023-06-26T11:53:39;51893.53;;;-145.37;36.38
13486;BME280;6815;59.336;17.998;2023-06-26T11:56:13;51921.47;;;-145.37;35.96
13486;BME280;6815;59.336;17.998;2023-06-26T12:01:37;51913.50;;;-145.37;35.74
13486;BME280;6815;59.336;17.998;2023-06-26T12:04:06;51929.47;;;-145.37;35.85
13486;BME280;6815;59.336;17.998;2023-06-26T12:06:37;51909.50;;;-145.37;35.52
13486;BME280;6815;59.336;17.998;2023-06-26T12:09:11;51877.56;;;-145.37;35.35
13486;BME280;6815;59.336;17.998;2023-06-26T12:11:38;51897.53;;;-145.37;35.54
13486;BME280;6815;59.336;17.998;2023-06-26T12:14:06;51959.41;;;-145.37;35.75
13486;BME280;6815;59.336;17.998;2023-06-26T12:16:33;51929.47;;;-145.37;35.48
13486;BME280;6815;59.336;17.998;2023-06-26T12:19:03;51919.50;;;-145.37;35.41
13486;BME280;6815;59.336;17.998;2023-06-26T12:24:03;51889.53;;;-145.37;34.83
13486;BME280;6815;59.336;17.998;2023-06-26T12:26:29;51885.56;;;-145.37;34.73
13486;BME280;6815;59.336;17.998;2023-06-26T12:29:11;51867.59;;;-145.37;34.37
13486;BME280;6815;59.336;17.998;2023-06-26T12:31:43;51863.59;;;-145.37;34.56
13486;BME280;6815;59.336;17.998;2023-06-26T12:34:13;51909.50;;;-145.37;34.63
13486;BME280;6815;59.336;17.998;2023-06-26T12:36:47;51901.53;;;-145.37;34.41
13486;BME280;6815;59.336;17.998;2023-06-26T12:39:18;51925.47;;;-145.37;34.24
13486;BME280;6815;59.336;17.998;2023-06-26T12:41:57;51871.59;;;-145.37;33.81
13486;BME280;6815;59.336;17.998;2023-06-26T12:44:26;51891.53;;;-145.37;34.10
13486;BME280;6815;59.336;17.998;2023-06-26T12:47:00;51851.63;;;-145.37;33.74
13486;BME280;6815;59.336;17.998;2023-06-26T12:49:35;51905.50;;;-145.37;34.28
13486;BME280;6815;59.336;17.998;2023-06-26T12:52:06;51913.50;;;-145.37;34.16
13486;BME280;6815;59.336;17.998;2023-06-26T12:54:34;51921.47;;;-145.37;34.08
13486;BME280;6815;59.336;17.998;2023-06-26T12:57:01;51929.47;;;-145.37;34.49
13486;BME280;6815;59.336;17.998;2023-06-26T12:59:27;51901.53;;;-145.37;34.19
13486;BME280;6815;59.336;17.998;2023-06-26T13:01:52;51857.59;;;-145.37;34.17